Time;durP1;ratioP1;P1;durP2;ratioP2;P2;SDS_P1;SDS_P2;PMS_P1;PMS_P2;Temp;Humidity;BMP_temperature;BMP_pressure;BME280_temperature;BME280_humidity;BME280_pressure;Samples;Min_cycle;Max_cycle;Signal;HPM_P1;HPM_P2
2022/09/25 00:00:36;;;;;;;59.33;33.65;;;10.90;99.90;;;;;;5094980;28;20526;-56
2022/09/25 00:03:02;;;;;;;60.83;31.40;;;10.90;99.90;;;;;;5094777;28;20107;-55
2022/09/25 00:05:28;;;;;;;49.65;27.55;;;10.90;99.90;;;;;;5094716;28;20035;-55
2022/09/25 00:07:55;;;;;;;48.45;27.75;;;10.80;99.90;;;;;;5095095;28;20433;-56
2022/09/25 00:10:24;;;;;;;49.00;25.63;;;10.70;99.90;;;;;;5094840;28;20016;-56
2022/09/25 00:12:50;;;;;;;49.22;27.05;;;10.70;99.90;;;;;;5094957;28;20024;-56
2022/09/25 00:15:17;;;;;;;48.53;26.38;;;10.60;99.90;;;;;;5095025;28;20497;-56
2022/09/25 00:17:42;;;;;;;53.35;28.02;;;10.60;99.90;;;;;;5094848;28;20057;-55
2022/09/25 00:20:09;;;;;;;50.47;28.13;;;10.60;99.90;;;;;;5094665;28;20046;-56
2022/09/25 00:22:35;;;;;;;54.83;31.52;;;10.60;99.90;;;;;;5094578;28;20028;-56
2022/09/25 00:25:02;;;;;;;69.22;35.08;;;10.60;99.90;;;;;;5094617;28;20055;-56
2022/09/25 00:27:28;;;;;;;65.78;36.38;;;10.70;99.90;;;;;;5094731;28;20030;-56
2022/09/25 00:29:54;;;;;;;70.13;37.40;;;10.70;99.90;;;;;;5110398;28;20024;-55
2022/09/25 00:32:19;;;;;;;72.35;37.13;;;10.70;99.90;;;;;;5094468;28;20052;-56
2022/09/25 00:34:46;;;;;;;73.75;39.20;;;10.80;99.90;;;;;;5094628;28;20129;-56
2022/09/25 00:37:11;;;;;;;67.60;35.17;;;10.80;99.90;;;;;;5094729;28;20140;-56
2022/09/25 00:39:37;;;;;;;64.75;33.00;;;10.70;99.90;;;;;;5094235;28;20138;-56
2022/09/25 00:42:03;;;;;;;51.15;28.88;;;10.80;99.90;;;;;;5094373;28;20366;-56
2022/09/25 00:44:52;;;;;;;56.90;28.83;;;10.80;99.90;;;;;;5094456;28;20473;-55
2022/09/25 00:47:22;;;;;;;55.05;29.13;;;10.80;99.90;;;;;;5094514;28;20533;-56
2022/09/25 00:49:50;;;;;;;54.40;29.42;;;10.80;99.90;;;;;;5093359;28;20056;-55
2022/09/25 00:52:17;;;;;;;51.58;29.52;;;10.80;99.90;;;;;;5094509;28;20032;-56
2022/09/25 00:55:01;;;;;;;49.33;27.70;;;10.80;99.90;;;;;;5094393;28;20034;-56
2022/09/25 00:57:32;;;;;;;53.45;29.40;;;10.80;99.90;;;;;;5094263;28;20035;-56
2022/09/25 01:00:10;;;;;;;52.35;29.58;;;10.80;99.90;;;;;;5094353;28;20028;-56
2022/09/25 01:02:41;;;;;;;52.00;26.23;;;10.70;99.90;;;;;;5094205;28;20052;-56
2022/09/25 01:05:14;;;;;;;;;;;10.70;99.90;;;;;;5094850;28;20034;-55
2022/09/25 01:07:44;;;;;;;52.67;26.58;;;10.70;99.90;;;;;;5094282;28;19908;-55
2022/09/25 01:10:10;;;;;;;54.10;28.45;;;10.80;99.90;;;;;;5094438;28;20035;-56
2022/09/25 01:12:40;;;;;;;49.92;26.88;;;10.70;99.90;;;;;;5094282;28;20115;-55
2022/09/25 01:15:10;;;;;;;50.67;27.60;;;10.70;99.90;;;;;;5094283;28;20071;-55
2022/09/25 01:18:21;;;;;;;49.20;25.67;;;10.60;99.90;;;;;;5094172;28;20036;-56
2022/09/25 01:21:09;;;;;;;42.22;21.80;;;10.60;99.90;;;;;;5068329;28;20040;-55
2022/09/25 01:23:41;;;;;;;39.47;20.95;;;10.50;99.90;;;;;;5095552;28;20036;-56
2022/09/25 01:26:30;;;;;;;36.92;19.65;;;10.50;99.90;;;;;;5098072;28;20063;-56
2022/09/25 01:29:16;;;;;;;31.52;18.08;;;10.40;99.90;;;;;;5098077;28;20485;-56
2022/09/25 01:32:21;;;;;;;39.35;18.50;;;10.40;99.90;;;;;;5097763;28;20059;-56
2022/09/25 01:35:18;;;;;;;33.67;18.27;;;10.30;99.90;;;;;;5047140;28;20037;-56
2022/09/25 01:37:55;;;;;;;31.23;17.40;;;10.20;99.90;;;;;;5097997;28;20028;-56
2022/09/25 01:40:33;;;;;;;31.17;16.90;;;10.10;99.90;;;;;;5097775;28;20040;-56
2022/09/25 01:43:13;;;;;;;35.13;17.52;;;10.20;99.90;;;;;;5097530;28;20043;-56
2022/09/25 01:45:50;;;;;;;37.17;17.53;;;10.10;99.90;;;;;;5097603;28;20089;-56
2022/09/25 01:48:21;;;;;;;39.97;18.52;;;10.10;99.90;;;;;;5097631;28;20256;-56
2022/09/25 01:51:04;;;;;;;31.98;17.42;;;10.10;99.90;;;;;;5097557;28;20020;-56
2022/09/25 01:53:42;;;;;;;32.30;16.98;;;10.00;99.90;;;;;;5097537;28;20036;-56
2022/09/25 01:56:15;;;;;;;32.13;17.55;;;10.00;99.90;;;;;;5097459;28;20028;-56
2022/09/25 01:58:48;;;;;;;28.08;16.02;;;9.90;99.90;;;;;;5097369;28;20150;-56
2022/09/25 02:01:39;;;;;;;30.98;17.20;;;9.80;99.90;;;;;;5097501;28;20032;-56
2022/09/25 02:04:22;;;;;;;32.65;16.17;;;9.80;99.90;;;;;;5097197;28;20032;-56
2022/09/25 02:06:50;;;;;;;28.80;16.40;;;9.70;99.90;;;;;;5097252;28;20078;-56
2022/09/25 02:09:44;;;;;;;25.35;14.88;;;9.70;99.90;;;;;;5096950;28;20077;-56
2022/09/25 02:12:22;;;;;;;25.75;14.23;;;9.60;99.90;;;;;;5097136;28;20084;-56
2022/09/25 02:14:58;;;;;;;28.13;14.73;;;9.60;99.90;;;;;;5097082;28;20030;-56
2022/09/25 02:20:41;;;;;;;29.33;16.38;;;9.60;99.90;;;;;;5096790;28;20036;-56
2022/09/25 02:23:26;;;;;;;38.35;19.45;;;9.70;99.90;;;;;;5097232;28;20208;-56
2022/09/25 02:26:01;;;;;;;40.95;20.98;;;9.60;99.90;;;;;;5096715;28;20028;-56
2022/09/25 02:28:27;;;;;;;55.58;25.48;;;9.70;99.90;;;;;;5097034;28;20037;-56
2022/09/25 02:30:56;;;;;;;48.17;23.38;;;9.70;99.90;;;;;;5096905;28;20020;-56
2022/09/25 02:33:24;;;;;;;41.40;21.75;;;9.70;99.90;;;;;;5096469;28;20028;-56
2022/09/25 02:35:49;;;;;;;34.05;18.52;;;9.60;99.90;;;;;;5095643;28;20020;-56
2022/09/25 02:38:16;;;;;;;30.60;16.73;;;9.60;99.90;;;;;;5096767;28;20024;-56
2022/09/25 02:40:50;;;;;;;41.30;22.25;;;9.60;99.90;;;;;;5096369;28;20493;-56
2022/09/25 02:43:34;;;;;;;44.55;22.13;;;9.60;99.90;;;;;;5096553;28;20101;-56
2022/09/25 02:46:18;;;;;;;38.78;21.00;;;9.70;99.90;;;;;;5096547;28;20024;-56
2022/09/25 02:48:52;;;;;;;30.13;17.52;;;9.70;99.90;;;;;;5096416;28;20385;-56
2022/09/25 02:51:42;;;;;;;29.23;16.67;;;9.50;99.90;;;;;;5096409;28;20494;-56
2022/09/25 02:54:31;;;;;;;28.25;15.98;;;9.50;99.90;;;;;;5082623;28;20244;-56
2022/09/25 02:57:34;;;;;;;28.42;16.20;;;9.60;99.90;;;;;;5096229;28;20081;-56
2022/09/25 03:00:05;;;;;;;26.80;14.25;;;9.50;99.90;;;;;;5096244;28;20032;-56
2022/09/25 03:02:34;;;;;;;22.73;13.35;;;9.60;99.90;;;;;;5096005;28;20071;-56
2022/09/25 03:05:01;;;;;;;20.60;13.00;;;9.60;99.90;;;;;;5096233;28;20385;-56
2022/09/25 03:07:27;;;;;;;22.17;14.07;;;9.60;99.90;;;;;;5096047;28;20020;-56
2022/09/25 03:09:56;;;;;;;29.55;15.77;;;9.60;99.90;;;;;;5096083;28;20480;-56
2022/09/25 03:12:22;;;;;;;24.05;14.27;;;9.70;99.90;;;;;;5096166;28;20032;-56
2022/09/25 03:14:48;;;;;;;23.15;13.88;;;9.60;99.90;;;;;;5096122;28;20057;-56
2022/09/25 03:17:16;;;;;;;23.88;13.55;;;9.60;99.90;;;;;;5095960;28;20032;-56
2022/09/25 03:19:42;;;;;;;26.17;12.88;;;9.70;99.90;;;;;;5095717;28;20113;-56
2022/09/25 03:22:08;;;;;;;22.10;12.65;;;9.70;99.90;;;;;;5095463;28;20059;-56
2022/09/25 03:24:34;;;;;;;26.60;11.63;;;9.70;99.90;;;;;;5095755;28;20020;-56
2022/09/25 03:26:59;;;;;;;23.88;11.98;;;9.80;99.90;;;;;;5095919;28;20128;-56
2022/09/25 03:29:25;;;;;;;23.48;12.13;;;9.70;99.90;;;;;;5095619;28;20016;-56
2022/09/25 03:31:51;;;;;;;24.80;12.07;;;9.60;99.90;;;;;;5095501;28;20027;-56
2022/09/25 03:34:18;;;;;;;20.95;11.32;;;9.70;99.90;;;;;;5095551;28;20393;-56
2022/09/25 03:36:46;;;;;;;20.88;12.52;;;9.70;99.90;;;;;;5095386;28;20030;-56
2022/09/25 03:39:14;;;;;;;18.83;11.15;;;9.70;99.90;;;;;;5095516;28;20332;-56
2022/09/25 03:41:40;;;;;;;20.55;10.77;;;9.80;99.90;;;;;;5095293;28;20043;-56
2022/09/25 03:44:06;;;;;;;18.77;11.23;;;9.70;99.90;;;;;;5095095;28;20043;-56
2022/09/25 03:46:34;;;;;;;17.13;10.95;;;9.70;99.90;;;;;;5095234;28;20035;-56
2022/09/25 03:49:01;;;;;;;19.73;11.02;;;9.70;99.90;;;;;;5095381;28;20040;-56
2022/09/25 03:51:29;;;;;;;21.00;11.27;;;9.80;99.90;;;;;;5095194;28;20137;-56
2022/09/25 03:53:55;;;;;;;21.33;11.57;;;9.70;99.90;;;;;;5095551;28;20147;-56
2022/09/25 03:56:25;;;;;;;19.27;11.77;;;9.70;99.90;;;;;;5095110;28;20103;-56
2022/09/25 03:58:53;;;;;;;20.15;12.43;;;9.80;99.90;;;;;;5095201;28;20035;-56
2022/09/25 04:01:20;;;;;;;24.58;12.32;;;9.80;99.90;;;;;;5095115;28;20023;-56
2022/09/25 04:03:47;;;;;;;22.23;11.32;;;9.90;99.90;;;;;;5095044;28;20373;-55
2022/09/25 04:06:18;;;;;;;20.00;11.60;;;10.00;99.90;;;;;;5094955;28;20536;-56
2022/09/25 04:08:45;;;;;;;17.23;10.55;;;10.00;99.90;;;;;;5094934;28;20020;-56
2022/09/25 04:11:11;;;;;;;20.88;10.18;;;10.10;99.90;;;;;;5094918;28;20462;-56
2022/09/25 04:13:39;;;;;;;14.35;9.20;;;10.10;99.90;;;;;;5094784;28;20030;-56
2022/09/25 04:16:06;;;;;;;16.60;9.73;;;10.00;99.90;;;;;;5094762;28;20461;-56
2022/09/25 04:18:32;;;;;;;15.98;8.57;;;10.00;99.90;;;;;;5094954;28;20062;-56
2022/09/25 04:21:04;;;;;;;15.48;9.00;;;10.00;99.90;;;;;;5094550;28;20036;-56
2022/09/25 04:23:31;;;;;;;16.27;9.57;;;10.00;99.90;;;;;;5094633;28;20415;-56
2022/09/25 04:25:57;;;;;;;16.33;8.88;;;10.00;99.90;;;;;;5094271;28;20028;-56
2022/09/25 04:28:24;;;;;;;20.10;9.70;;;10.00;99.90;;;;;;5094748;28;20031;-56
2022/09/25 04:30:50;;;;;;;15.38;9.40;;;10.00;99.90;;;;;;5094539;28;20020;-56
2022/09/25 04:36:02;;;;;;;20.77;10.68;;;10.20;99.90;;;;;;5094718;28;20039;-56
2022/09/25 04:38:31;;;;;;;15.98;9.98;;;10.10;99.90;;;;;;5094647;28;20032;-56
2022/09/25 04:41:00;;;;;;;22.83;11.00;;;10.10;99.90;;;;;;5094377;28;20048;-56
2022/09/25 04:43:33;;;;;;;23.02;11.52;;;10.30;99.90;;;;;;5094236;28;20054;-56
2022/09/25 04:46:04;;;;;;;16.65;9.25;;;10.30;99.90;;;;;;5094729;28;20028;-56
2022/09/25 04:48:31;;;;;;;18.83;10.18;;;10.30;99.90;;;;;;5094502;28;20028;-56
2022/09/25 04:50:57;;;;;;;20.83;10.80;;;10.20;99.90;;;;;;5094453;28;20533;-56
2022/09/25 04:53:25;;;;;;;18.25;9.68;;;10.20;99.90;;;;;;5094526;28;20028;-56
2022/09/25 04:55:53;;;;;;;23.23;11.68;;;10.30;99.90;;;;;;5094059;28;20527;-56
2022/09/25 04:58:20;;;;;;;22.13;10.00;;;10.30;99.90;;;;;;5095358;28;20520;-56
2022/09/25 05:00:45;;;;;;;25.55;11.05;;;10.40;99.90;;;;;;5098626;28;20028;-56
2022/09/25 05:03:11;;;;;;;19.45;10.50;;;10.40;99.90;;;;;;5098271;28;20024;-56
2022/09/25 05:05:37;;;;;;;23.05;12.25;;;10.50;99.90;;;;;;5098535;28;20097;-56
2022/09/25 05:08:03;;;;;;;25.17;13.45;;;10.60;99.90;;;;;;5098479;28;20080;-56
2022/09/25 05:10:32;;;;;;;41.78;15.95;;;10.60;99.90;;;;;;5098253;28;20060;-56
2022/09/25 05:13:00;;;;;;;72.97;34.80;;;10.70;99.90;;;;;;5098294;28;20032;-56
2022/09/25 05:15:28;;;;;;;69.00;35.85;;;10.80;99.90;;;;;;5098184;28;20499;-56
2022/09/25 05:18:06;;;;;;;37.70;21.77;;;10.90;99.90;;;;;;5098536;28;20135;-56
2022/09/25 05:20:35;;;;;;;25.42;14.43;;;11.00;99.90;;;;;;5098068;28;20020;-56
2022/09/25 05:23:03;;;;;;;21.15;12.60;;;11.20;99.90;;;;;;5097940;28;20378;-56
2022/09/25 05:25:29;;;;;;;23.08;13.05;;;11.30;99.90;;;;;;5098240;28;20027;-56
2022/09/25 05:27:58;;;;;;;17.60;8.98;;;11.40;99.90;;;;;;5098162;28;20036;-56
2022/09/25 05:30:25;;;;;;;18.63;9.98;;;11.40;99.90;;;;;;5097871;28;20034;-56
2022/09/25 05:32:52;;;;;;;26.80;11.45;;;11.30;99.90;;;;;;5097875;28;20036;-56
2022/09/25 05:35:22;;;;;;;18.73;10.93;;;11.50;99.90;;;;;;5098027;28;20057;-56
2022/09/25 05:37:49;;;;;;;22.02;10.25;;;11.70;99.90;;;;;;5097813;28;20396;-56
2022/09/25 05:40:15;;;;;;;24.33;12.13;;;11.90;99.90;;;;;;5097759;28;20051;-56
2022/09/25 05:42:43;;;;;;;20.55;10.50;;;12.10;99.90;;;;;;5097867;28;20039;-56
2022/09/25 05:45:13;;;;;;;24.90;11.48;;;12.20;99.90;;;;;;5097480;28;20504;-56
2022/09/25 05:47:40;;;;;;;20.63;10.60;;;12.00;99.90;;;;;;5097714;28;20024;-56
2022/09/25 05:50:09;;;;;;;21.70;10.25;;;12.30;99.90;;;;;;5097576;28;20028;-56
2022/09/25 05:52:35;;;;;;;22.63;11.52;;;12.60;99.90;;;;;;5097702;28;20024;-56
2022/09/25 05:55:02;;;;;;;20.08;10.73;;;12.80;99.90;;;;;;5097467;28;20508;-56
2022/09/25 05:57:33;;;;;;;19.80;11.43;;;12.90;99.90;;;;;;5097500;28;20039;-56
2022/09/25 05:59:59;;;;;;;18.77;11.25;;;13.20;99.90;;;;;;5097535;28;20043;-56
2022/09/25 06:02:25;;;;;;;18.17;10.95;;;13.50;99.90;;;;;;5097089;28;20036;-56
2022/09/25 06:04:51;;;;;;;16.17;10.60;;;13.80;99.90;;;;;;5097479;28;20034;-56
2022/09/25 06:07:16;;;;;;;31.27;12.80;;;14.00;99.90;;;;;;5097253;28;20028;-56
2022/09/25 06:09:42;;;;;;;20.52;10.43;;;14.10;98.40;;;;;;5097161;28;20028;-56
2022/09/25 06:12:08;;;;;;;21.23;10.05;;;14.50;95.90;;;;;;5097121;28;20067;-56
2022/09/25 06:14:35;;;;;;;23.33;11.00;;;14.70;97.10;;;;;;5097283;28;20074;-56
2022/09/25 06:17:02;;;;;;;18.85;9.43;;;15.00;94.90;;;;;;5097042;28;20051;-56
2022/09/25 06:19:28;;;;;;;18.52;9.32;;;15.30;93.10;;;;;;5096997;28;20016;-56
2022/09/25 06:21:56;;;;;;;17.75;9.85;;;15.60;92.40;;;;;;5096866;28;20028;-56
2022/09/25 06:24:23;;;;;;;25.42;10.05;;;15.80;91.00;;;;;;5097425;28;20081;-56
2022/09/25 06:26:49;;;;;;;29.77;13.02;;;16.20;90.80;;;;;;5096903;28;20032;-56
2022/09/25 06:29:15;;;;;;;23.20;13.60;;;16.40;88.90;;;;;;5097004;28;20479;-56
2022/09/25 06:31:41;;;;;;;21.73;12.45;;;16.70;85.50;;;;;;5096642;28;20562;-56
2022/09/25 06:34:08;;;;;;;25.45;13.13;;;17.10;83.10;;;;;;5096535;28;20068;-56
2022/09/25 06:36:35;;;;;;;25.80;12.05;;;17.40;80.60;;;;;;5096888;28;20028;-56
2022/09/25 06:39:01;;;;;;;23.60;12.52;;;17.70;81.00;;;;;;5096774;28;20133;-56
2022/09/25 06:41:27;;;;;;;25.23;13.77;;;17.80;77.10;;;;;;5096503;28;20052;-56
2022/09/25 06:43:53;;;;;;;21.35;14.48;;;17.70;76.30;;;;;;5096463;28;20032;-56
2022/09/25 06:46:20;;;;;;;18.63;11.55;;;17.80;78.40;;;;;;5096398;28;20114;-56
2022/09/25 06:48:53;;;;;;;25.58;12.63;;;18.10;75.70;;;;;;5096497;28;20470;-56
2022/09/25 06:51:24;;;;;;;27.88;16.10;;;18.20;74.70;;;;;;5096480;28;20034;-56
2022/09/25 06:53:53;;;;;;;27.83;17.10;;;18.50;73.60;;;;;;5096290;28;20487;-56
2022/09/25 06:56:20;;;;;;;29.50;14.13;;;18.80;73.30;;;;;;5095975;28;20036;-56
2022/09/25 06:58:46;;;;;;;15.45;9.27;;;19.00;71.10;;;;;;5096229;28;20036;-56
2022/09/25 07:01:12;;;;;;;17.45;10.95;;;19.30;68.90;;;;;;5096379;28;20499;-56
2022/09/25 07:03:46;;;;;;;14.48;9.35;;;19.10;69.90;;;;;;5096023;28;20393;-56
2022/09/25 07:06:24;;;;;;;18.50;11.45;;;19.40;67.00;;;;;;5096178;28;20102;-56
2022/09/25 07:08:51;;;;;;;21.33;12.27;;;19.70;69.20;;;;;;5095997;28;20031;-57
2022/09/25 07:11:19;;;;;;;25.65;16.42;;;19.60;67.10;;;;;;5095963;28;20128;-57
2022/09/25 07:13:47;;;;;;;26.40;16.70;;;19.80;68.40;;;;;;5096088;28;20048;-57
2022/09/25 07:16:15;;;;;;;26.25;15.93;;;19.70;68.00;;;;;;5095893;28;20032;-57
2022/09/25 07:18:42;;;;;;;34.03;20.98;;;19.70;69.20;;;;;;5095755;28;20063;-57
2022/09/25 07:21:11;;;;;;;31.42;19.85;;;20.00;70.20;;;;;;5095044;28;20445;-57
2022/09/25 07:23:38;;;;;;;29.75;18.83;;;20.20;68.40;;;;;;5096142;28;20355;-57
2022/09/25 07:26:11;;;;;;;35.45;19.83;;;20.40;68.50;;;;;;5095843;28;20035;-57
2022/09/25 07:28:38;;;;;;;25.08;16.92;;;20.50;68.40;;;;;;5095783;28;20027;-57
2022/09/25 07:31:16;;;;;;;28.50;18.10;;;20.50;66.50;;;;;;5095731;28;20072;-57
2022/09/25 07:33:42;;;;;;;30.42;18.10;;;20.50;67.20;;;;;;5095652;28;20155;-57
2022/09/25 07:36:09;;;;;;;26.35;17.63;;;20.40;65.60;;;;;;5095864;28;20041;-57
2022/09/25 07:38:35;;;;;;;29.35;18.25;;;20.60;65.70;;;;;;5095542;28;20078;-57
2022/09/25 07:41:05;;;;;;;32.45;19.90;;;20.30;66.20;;;;;;5095415;28;20131;-57
2022/09/25 07:43:35;;;;;;;29.20;17.92;;;20.40;66.40;;;;;;5095373;28;20023;-57
2022/09/25 07:46:01;;;;;;;26.63;16.98;;;20.50;65.20;;;;;;5095363;28;20032;-57
2022/09/25 07:48:30;;;;;;;24.83;16.13;;;20.40;64.90;;;;;;5095379;28;20062;-57
2022/09/25 07:51:03;;;;;;;32.33;17.55;;;20.40;64.90;;;;;;5095176;28;20106;-57
2022/09/25 07:53:29;;;;;;;28.83;16.92;;;20.10;65.20;;;;;;5095116;28;20103;-57
2022/09/25 07:56:00;;;;;;;27.38;16.33;;;20.20;68.40;;;;;;5095165;28;20078;-57
2022/09/25 07:58:27;;;;;;;28.15;15.35;;;20.40;66.50;;;;;;5095176;28;20034;-57
2022/09/25 08:00:54;;;;;;;29.23;15.18;;;20.50;65.20;;;;;;5094902;28;20066;-57
2022/09/25 08:03:20;;;;;;;23.40;15.63;;;20.50;65.90;;;;;;5095038;28;20111;-57
2022/09/25 08:05:46;;;;;;;24.90;16.08;;;20.60;65.50;;;;;;5095261;28;20027;-57
2022/09/25 08:08:12;;;;;;;23.52;15.05;;;20.60;67.40;;;;;;5094814;28;20028;-57
2022/09/25 08:10:38;;;;;;;24.40;14.55;;;20.20;69.90;;;;;;5094893;28;20474;-57
2022/09/25 08:13:04;;;;;;;38.47;20.48;;;20.10;66.80;;;;;;5094935;28;20079;-57
2022/09/25 08:15:30;;;;;;;33.13;19.73;;;19.90;67.10;;;;;;5094903;28;20028;-57
2022/09/25 08:17:56;;;;;;;38.42;22.10;;;20.10;66.00;;;;;;5094702;28;20028;-57
2022/09/25 08:20:22;;;;;;;35.88;21.08;;;19.90;67.80;;;;;;5094670;28;20413;-57
2022/09/25 08:22:51;;;;;;;35.83;20.13;;;20.00;69.20;;;;;;5094596;28;20110;-57
2022/09/25 08:25:17;;;;;;;22.17;13.45;;;20.10;68.30;;;;;;5094836;28;20024;-57
2022/09/25 08:27:43;;;;;;;19.48;11.48;;;20.10;68.00;;;;;;5094709;28;20024;-57
2022/09/25 08:30:12;;;;;;;16.67;10.77;;;20.20;66.40;;;;;;5094696;28;20072;-57
2022/09/25 08:32:38;;;;;;;18.95;10.90;;;20.20;65.70;;;;;;5093437;28;20494;-57
2022/09/25 08:35:04;;;;;;;13.70;9.40;;;20.20;68.30;;;;;;5094509;28;20024;-57
2022/09/25 08:37:31;;;;;;;18.48;11.20;;;20.40;69.60;;;;;;5094644;28;20107;-57
2022/09/25 08:39:58;;;;;;;22.48;10.68;;;20.30;65.90;;;;;;5094330;28;20037;-57
2022/09/25 08:42:31;;;;;;;22.50;12.98;;;20.40;69.40;;;;;;5094370;28;20024;-57
2022/09/25 08:50:32;;;;;;;15.23;9.55;;;20.00;76.80;;;;;;5094406;28;20016;-57
2022/09/25 08:53:22;;;;;;;18.73;10.02;;;20.10;71.80;;;;;;5094676;28;20481;-57
2022/09/25 08:58:41;;;;;;;15.90;9.88;;;20.40;67.20;;;;;;5094431;28;20431;-57
2022/09/25 09:01:12;;;;;;;20.33;10.65;;;20.40;70.90;;;;;;5094394;28;20030;-57
2022/09/25 09:04:05;;;;;;;20.38;12.98;;;20.50;73.80;;;;;;5094330;28;20061;-57
2022/09/25 09:06:33;;;;;;;25.67;12.85;;;20.40;72.90;;;;;;5094327;28;20473;-57
2022/09/25 09:09:45;;;;;;;23.30;12.48;;;20.40;75.40;;;;;;5094196;28;20059;-57
2022/09/25 09:12:24;;;;;;;30.63;16.92;;;20.40;72.70;;;;;;5058122;28;20048;-57
2022/09/25 09:14:55;;;;;;;24.17;13.52;;;20.20;66.60;;;;;;5094290;28;20071;-57
2022/09/25 09:17:31;;;;;;;27.88;12.65;;;20.30;76.70;;;;;;5093989;28;20035;-57
2022/09/25 09:20:13;;;;;;;26.27;14.90;;;20.20;75.70;;;;;;5093997;28;20069;-57
2022/09/25 09:22:44;;;;;;;22.17;13.13;;;20.20;75.10;;;;;;5093910;28;20397;-57
2022/09/25 09:25:32;;;;;;;21.27;13.13;;;20.40;79.40;;;;;;5094141;28;20024;-57
2022/09/25 09:28:44;;;;;;;24.38;13.32;;;20.40;79.50;;;;;;5094140;28;20389;-57
2022/09/25 09:31:22;;;;;;;37.45;19.55;;;20.40;79.70;;;;;;5094072;28;20106;-57
2022/09/25 09:34:03;;;;;;;64.60;31.60;;;20.60;76.50;;;;;;5094329;28;20038;-57
2022/09/25 09:36:31;;;;;;;;;;;20.70;75.60;;;;;;5094432;28;20031;-57
2022/09/25 09:39:30;;;;;;;28.98;14.95;;;20.80;75.10;;;;;;5093969;28;20006;-57
2022/09/25 09:42:18;;;;;;;20.98;12.05;;;21.00;74.00;;;;;;5094031;28;20512;-57
2022/09/25 09:45:10;;;;;;;17.98;11.70;;;21.00;70.70;;;;;;5095421;28;20095;-57
2022/09/25 09:48:05;;;;;;;19.55;11.02;;;21.10;68.90;;;;;;5097661;28;20134;-57
2022/09/25 09:50:46;;;;;;;17.80;10.75;;;21.10;67.00;;;;;;5097580;28;20453;-57
2022/09/25 09:53:42;;;;;;;19.23;10.05;;;21.00;69.30;;;;;;5097548;28;20055;-57
2022/09/25 09:56:13;;;;;;;19.40;10.95;;;21.10;68.70;;;;;;5097240;28;20028;-57
2022/09/25 09:58:58;;;;;;;21.25;11.13;;;21.00;69.30;;;;;;5097798;28;20457;-57
2022/09/25 10:01:28;;;;;;;15.85;9.68;;;21.10;71.40;;;;;;5097214;28;20154;-57
2022/09/25 10:04:14;;;;;;;14.82;9.93;;;21.00;72.70;;;;;;5097179;28;20478;-57
2022/09/25 10:06:51;;;;;;;20.75;11.27;;;20.80;76.20;;;;;;5097206;28;20021;-57
2022/09/25 10:09:17;;;;;;;18.50;10.90;;;20.70;78.50;;;;;;5097174;28;20103;-57
2022/09/25 10:11:45;;;;;;;19.92;10.95;;;20.60;79.60;;;;;;5097243;28;20028;-57
2022/09/25 10:14:19;;;;;;;18.10;9.95;;;20.80;70.00;;;;;;5097248;28;20035;-57
2022/09/25 10:16:50;;;;;;;20.50;11.88;;;20.90;68.40;;;;;;5097031;28;20028;-57
2022/09/25 10:19:20;;;;;;;26.20;12.23;;;20.90;78.90;;;;;;5097019;28;20048;-57
2022/09/25 10:21:59;;;;;;;18.17;9.75;;;20.60;78.40;;;;;;5097069;28;20020;-57
2022/09/25 10:24:50;;;;;;;20.48;9.27;;;20.70;75.00;;;;;;5097007;28;20056;-57
2022/09/25 10:27:40;;;;;;;17.80;10.07;;;20.80;68.50;;;;;;5096972;28;20032;-57
2022/09/25 10:30:09;;;;;;;21.93;10.90;;;20.70;70.60;;;;;;5096928;28;20047;-57
2022/09/25 10:32:57;;;;;;;28.27;11.32;;;20.80;69.10;;;;;;5096735;28;20052;-57
2022/09/25 10:35:42;;;;;;;23.27;8.68;;;20.90;69.60;;;;;;5096811;28;20138;-57
2022/09/25 10:38:20;;;;;;;18.38;9.68;;;20.70;65.70;;;;;;5096864;28;20039;-57
2022/09/25 10:41:21;;;;;;;14.38;7.57;;;20.60;66.90;;;;;;5096560;28;20044;-57
2022/09/25 10:43:53;;;;;;;;;;;20.80;68.30;;;;;;5092009;28;20074;-55
2022/09/25 10:52:07;;;;;;;7.95;5.30;;;21.30;65.70;;;;;;5096382;28;20028;-55
2022/09/25 10:54:34;;;;;;;16.98;7.28;;;21.50;67.80;;;;;;5096510;28;20031;-55
2022/09/25 10:57:12;;;;;;;13.23;6.57;;;21.50;62.60;;;;;;5095349;28;20031;-55
2022/09/25 10:59:39;;;;;;;12.27;7.68;;;21.40;62.70;;;;;;5096459;28;20028;-55
2022/09/25 11:02:18;;;;;;;10.98;5.82;;;21.20;62.10;;;;;;5096351;28;20103;-55
2022/09/25 11:04:44;;;;;;;8.90;5.53;;;21.30;61.40;;;;;;5096197;28;20020;-55
2022/09/25 11:07:17;;;;;;;14.43;6.80;;;21.30;59.60;;;;;;5096167;28;20028;-55
2022/09/25 11:09:44;;;;;;;9.60;5.00;;;21.30;63.20;;;;;;5096142;28;20115;-55
2022/09/25 11:12:22;;;;;;;10.23;5.20;;;21.30;60.10;;;;;;5096267;28;20035;-55
2022/09/25 11:15:01;;;;;;;11.05;5.97;;;21.40;60.00;;;;;;5096004;28;20533;-55
2022/09/25 11:17:39;;;;;;;11.35;6.25;;;21.50;60.00;;;;;;5095904;28;20085;-55
2022/09/25 11:20:17;;;;;;;8.07;5.25;;;21.80;62.50;;;;;;5095631;28;20185;-55
2022/09/25 11:22:56;;;;;;;8.65;4.72;;;21.80;57.90;;;;;;5095737;28;20035;-55
2022/09/25 11:25:45;;;;;;;11.50;6.20;;;22.10;57.90;;;;;;5095393;28;20388;-55
2022/09/25 11:28:32;;;;;;;12.60;5.90;;;22.10;59.70;;;;;;5095796;28;20469;-55
2022/09/25 11:31:12;;;;;;;12.57;6.63;;;22.20;58.70;;;;;;5078612;28;20032;-55
2022/09/25 11:33:55;;;;;;;9.18;6.00;;;22.30;59.00;;;;;;5095806;28;20414;-55
2022/09/25 11:36:31;;;;;;;8.88;6.20;;;22.00;58.00;;;;;;5095506;28;20314;-55
2022/09/25 11:42:13;;;;;;;12.35;7.00;;;22.40;59.40;;;;;;5095360;28;20477;-55
2022/09/25 11:44:57;;;;;;;30.65;8.57;;;22.50;61.90;;;;;;5095280;28;20389;-55
2022/09/25 11:47:44;;;;;;;12.27;6.38;;;22.40;61.60;;;;;;5077158;28;20111;-55
2022/09/25 11:50:16;;;;;;;9.40;5.85;;;22.50;60.30;;;;;;5095767;28;20116;-55
2022/09/25 11:52:58;;;;;;;14.80;6.65;;;22.30;58.30;;;;;;5095305;28;20105;-55
2022/09/25 11:56:24;;;;;;;18.25;7.65;;;22.40;57.80;;;;;;5094920;28;20085;-55
2022/09/25 11:58:59;;;;;;;8.30;5.30;;;22.50;60.40;;;;;;4993141;28;20037;-55
2022/09/25 12:01:34;;;;;;;13.02;5.30;;;22.30;59.90;;;;;;4992765;28;20038;-55
2022/09/25 12:04:26;;;;;;;13.52;5.82;;;22.30;58.40;;;;;;4993301;28;20034;-55
2022/09/25 12:06:54;;;;;;;8.45;5.43;;;22.00;58.70;;;;;;4992832;28;20141;-55
2022/09/25 12:09:29;;;;;;;9.25;5.32;;;21.80;59.40;;;;;;4992958;28;20126;-55
2022/09/25 12:12:30;;;;;;;10.73;5.93;;;21.70;60.20;;;;;;4993072;28;20026;-55
2022/09/25 12:15:14;;;;;;;17.35;7.53;;;21.80;64.90;;;;;;4993130;28;20089;-55
2022/09/25 12:18:03;;;;;;;11.38;6.28;;;21.70;64.40;;;;;;4992858;28;20034;-55
2022/09/25 12:20:46;;;;;;;24.63;12.40;;;21.60;64.80;;;;;;4992733;28;20124;-55
2022/09/25 12:23:37;;;;;;;20.05;8.48;;;21.50;71.00;;;;;;4992748;28;20045;-55
2022/09/25 12:26:33;;;;;;;10.57;5.28;;;21.30;66.90;;;;;;4992865;28;20034;-55
2022/09/25 12:29:14;;;;;;;12.30;6.18;;;21.40;63.80;;;;;;4992931;28;20034;-55
2022/09/25 12:31:59;;;;;;;10.95;5.57;;;21.30;67.90;;;;;;4994130;28;20034;-55
2022/09/25 12:34:43;;;;;;;8.82;5.30;;;21.40;67.30;;;;;;5094590;28;20032;-55
2022/09/25 12:37:37;;;;;;;13.00;6.65;;;21.60;69.40;;;;;;5094644;28;20543;-55
2022/09/25 12:40:13;;;;;;;10.98;6.00;;;21.60;70.10;;;;;;5094495;28;20040;-55
2022/09/25 12:42:49;;;;;;;11.32;6.30;;;21.60;69.00;;;;;;5094528;28;20111;-55
2022/09/25 12:45:32;;;;;;;13.27;6.03;;;21.70;64.20;;;;;;5094438;28;20020;-55
2022/09/25 12:48:11;;;;;;;14.13;5.38;;;21.60;66.50;;;;;;5094503;28;20031;-55
2022/09/25 12:50:58;;;;;;;8.95;5.55;;;21.50;66.60;;;;;;5094524;28;20477;-55
2022/09/25 12:53:32;;;;;;;11.88;5.70;;;21.50;68.70;;;;;;5094483;28;20478;-55
2022/09/25 12:56:04;;;;;;;7.70;5.32;;;21.40;65.30;;;;;;5094343;28;20096;-55
2022/09/25 12:58:52;;;;;;;10.10;5.43;;;21.50;67.60;;;;;;5094362;28;20031;-55
2022/09/25 13:01:24;;;;;;;10.90;5.55;;;21.40;67.60;;;;;;5094318;28;20032;-55
2022/09/25 13:04:12;;;;;;;14.73;8.10;;;21.50;68.20;;;;;;5094208;28;20024;-55
2022/09/25 13:07:08;;;;;;;18.02;10.40;;;21.50;70.10;;;;;;5094151;28;20032;-55
2022/09/25 13:09:46;;;;;;;17.17;9.93;;;21.50;73.80;;;;;;5094142;28;20295;-55
2022/09/25 13:12:35;;;;;;;27.90;16.45;;;21.60;71.80;;;;;;5094383;28;20028;-55
2022/09/25 13:15:22;;;;;;;24.48;10.48;;;21.70;75.70;;;;;;5094598;28;20032;-55
2022/09/25 13:17:49;;;;;;;18.15;8.50;;;21.90;71.70;;;;;;5094290;28;20052;-55
2022/09/25 13:20:35;;;;;;;15.68;6.03;;;22.00;70.70;;;;;;5096521;28;20020;-55
2022/09/25 13:23:00;;;;;;;8.57;4.90;;;21.90;66.00;;;;;;5096907;28;20047;-55
2022/09/25 13:25:27;;;;;;;8.35;4.20;;;21.90;65.20;;;;;;5098160;28;20417;-55
2022/09/25 13:27:55;;;;;;;10.25;6.15;;;22.00;61.60;;;;;;5097892;28;20524;-55